sensor_id;sensor_type;location;lat;lon;timestamp;pressure;altitude;pressure_sealevel;temperature;humidity
77749;BME280;66938;52.084;5.228;2023-07-13T00:00:54;101448.0;;;18.63;67.08
77749;BME280;66938;52.084;5.228;2023-07-13T00:02:30;101447.0;;;18.7;67.03
77749;BME280;66938;52.084;5.228;2023-07-13T00:04:06;101444.0;;;18.68;66.91
77749;BME280;66938;52.084;5.228;2023-07-13T00:05:42;101442.0;;;18.62;67.05
77749;BME280;66938;52.084;5.228;2023-07-13T00:08:54;101444.0;;;18.7;66.83
77749;BME280;66938;52.084;5.228;2023-07-13T00:10:31;101445.0;;;18.66;66.81
77749;BME280;66938;52.084;5.228;2023-07-13T00:12:23;101446.0;;;18.7;66.77
77749;BME280;66938;52.084;5.228;2023-07-13T00:14:04;101447.0;;;18.61;66.6
77749;BME280;66938;52.084;5.228;2023-07-13T00:17:16;101447.0;;;18.56;67.11
77749;BME280;66938;52.084;5.228;2023-07-13T00:18:52;101444.0;;;18.63;66.48
77749;BME280;66938;52.084;5.228;2023-07-13T00:20:28;101444.0;;;18.59;66.45
77749;BME280;66938;52.084;5.228;2023-07-13T00:23:42;101440.0;;;18.46;66.62
77749;BME280;66938;52.084;5.228;2023-07-13T00:25:18;101441.0;;;18.54;66.55
77749;BME280;66938;52.084;5.228;2023-07-13T00:26:55;101440.0;;;18.52;66.5
77749;BME280;66938;52.084;5.228;2023-07-13T00:30:09;101439.0;;;18.52;66.48
77749;BME280;66938;52.084;5.228;2023-07-13T00:31:47;101440.0;;;18.5;66.28
77749;BME280;66938;52.084;5.228;2023-07-13T00:33:23;101449.0;;;18.46;66.59
77749;BME280;66938;52.084;5.228;2023-07-13T00:34:59;101446.0;;;18.34;66.85
77749;BME280;66938;52.084;5.228;2023-07-13T00:38:11;101449.0;;;18.34;66.84
77749;BME280;66938;52.084;5.228;2023-07-13T00:39:47;101446.0;;;18.34;66.64
77749;BME280;66938;52.084;5.228;2023-07-13T00:41:23;101446.0;;;18.31;66.81
77749;BME280;66938;52.084;5.228;2023-07-13T00:44:36;101448.0;;;18.27;66.94
77749;BME280;66938;52.084;5.228;2023-07-13T00:46:21;101451.0;;;18.18;67.16
77749;BME280;66938;52.084;5.228;2023-07-13T00:48:00;101451.0;;;18.14;67.23
77749;BME280;66938;52.084;5.228;2023-07-13T00:49:36;101452.0;;;18.16;67.31
77749;BME280;66938;52.084;5.228;2023-07-13T00:52:53;101451.0;;;18.13;67.47
77749;BME280;66938;52.084;5.228;2023-07-13T00:54:34;101446.0;;;18.06;67.75
77749;BME280;66938;52.084;5.228;2023-07-13T00:56:16;101442.0;;;18.03;68.37
77749;BME280;66938;52.084;5.228;2023-07-13T00:59:28;101438.0;;;18.16;67.72
77749;BME280;66938;52.084;5.228;2023-07-13T01:01:05;101444.0;;;18.25;67.55
77749;BME280;66938;52.084;5.228;2023-07-13T01:02:42;101446.0;;;18.18;67.75
77749;BME280;66938;52.084;5.228;2023-07-13T01:04:24;101450.0;;;18.2;67.66
77749;BME280;66938;52.084;5.228;2023-07-13T01:07:36;101449.0;;;18.16;67.81
77749;BME280;66938;52.084;5.228;2023-07-13T01:09:14;101453.0;;;18.11;67.83
77749;BME280;66938;52.084;5.228;2023-07-13T01:10:52;101455.0;;;18.11;67.95
77749;BME280;66938;52.084;5.228;2023-07-13T01:14:05;101453.0;;;18.14;67.84
77749;BME280;66938;52.084;5.228;2023-07-13T01:15:43;101460.0;;;18.11;68.0
77749;BME280;66938;52.084;5.228;2023-07-13T01:17:20;101459.0;;;18.07;68.25
77749;BME280;66938;52.084;5.228;2023-07-13T01:18:56;101457.0;;;18.09;68.08
77749;BME280;66938;52.084;5.228;2023-07-13T01:22:13;101462.0;;;18.11;68.25
77749;BME280;66938;52.084;5.228;2023-07-13T01:23:51;101463.0;;;18.12;68.17
77749;BME280;66938;52.084;5.228;2023-07-13T01:25:28;101460.0;;;18.09;68.38
77749;BME280;66938;52.084;5.228;2023-07-13T01:28:42;101463.0;;;18.02;68.83
77749;BME280;66938;52.084;5.228;2023-07-13T01:30:19;101464.0;;;18.02;68.97
77749;BME280;66938;52.084;5.228;2023-07-13T01:31:55;101463.0;;;17.95;69.12
77749;BME280;66938;52.084;5.228;2023-07-13T01:33:31;101461.0;;;17.96;69.22
77749;BME280;66938;52.084;5.228;2023-07-13T01:36:43;101462.0;;;18.0;69.36
77749;BME280;66938;52.084;5.228;2023-07-13T01:38:21;101462.0;;;18.02;69.3
77749;BME280;66938;52.084;5.228;2023-07-13T01:39:59;101460.0;;;18.0;69.52
77749;BME280;66938;52.084;5.228;2023-07-13T01:43:11;101463.0;;;17.97;69.69
77749;BME280;66938;52.084;5.228;2023-07-13T01:44:48;101463.0;;;17.95;69.83
77749;BME280;66938;52.084;5.228;2023-07-13T01:46:24;101458.0;;;17.93;70.08
77749;BME280;66938;52.084;5.228;2023-07-13T01:49:37;101463.0;;;17.93;70.09
77749;BME280;66938;52.084;5.228;2023-07-13T01:51:13;101464.0;;;17.93;70.23
77749;BME280;66938;52.084;5.228;2023-07-13T01:52:49;101466.0;;;17.84;70.63
77749;BME280;66938;52.084;5.228;2023-07-13T01:56:01;101468.0;;;17.84;70.59
77749;BME280;66938;52.084;5.228;2023-07-13T01:57:37;101465.0;;;17.86;70.64
77749;BME280;66938;52.084;5.228;2023-07-13T01:59:13;101469.0;;;17.87;70.61
77749;BME280;66938;52.084;5.228;2023-07-13T02:00:51;101470.0;;;17.84;70.81
77749;BME280;66938;52.084;5.228;2023-07-13T02:04:04;101469.0;;;17.84;70.8
77749;BME280;66938;52.084;5.228;2023-07-13T02:05:40;101468.0;;;17.81;70.98
77749;BME280;66938;52.084;5.228;2023-07-13T02:07:16;101463.0;;;17.88;70.75
77749;BME280;66938;52.084;5.228;2023-07-13T02:10:29;101467.0;;;17.82;70.94
77749;BME280;66938;52.084;5.228;2023-07-13T02:12:06;101471.0;;;17.82;70.94
77749;BME280;66938;52.084;5.228;2023-07-13T02:13:43;101470.0;;;17.86;70.88
77749;BME280;66938;52.084;5.228;2023-07-13T02:16:55;101477.0;;;17.84;71.08
77749;BME280;66938;52.084;5.228;2023-07-13T02:18:31;101480.0;;;17.79;71.33
77749;BME280;66938;52.084;5.228;2023-07-13T02:20:08;101483.0;;;17.68;71.86
77749;BME280;66938;52.084;5.228;2023-07-13T02:21:44;101481.0;;;17.77;71.69
77749;BME280;66938;52.084;5.228;2023-07-13T02:24:57;101484.0;;;17.61;72.59
77749;BME280;66938;52.084;5.228;2023-07-13T02:26:33;101481.0;;;17.66;72.47
77749;BME280;66938;52.084;5.228;2023-07-13T02:28:10;101482.0;;;17.61;72.8
77749;BME280;66938;52.084;5.228;2023-07-13T02:31:22;101480.0;;;17.59;73.19
77749;BME280;66938;52.084;5.228;2023-07-13T02:32:58;101483.0;;;17.56;73.45
77749;BME280;66938;52.084;5.228;2023-07-13T02:34:34;101482.0;;;17.52;73.7
77749;BME280;66938;52.084;5.228;2023-07-13T02:37:49;101482.0;;;17.59;73.55
77749;BME280;66938;52.084;5.228;2023-07-13T02:39:25;101478.0;;;17.47;74.23
77749;BME280;66938;52.084;5.228;2023-07-13T02:41:01;101488.0;;;17.52;74.19
77749;BME280;66938;52.084;5.228;2023-07-13T02:42:37;101488.0;;;17.45;74.63
77749;BME280;66938;52.084;5.228;2023-07-13T02:45:50;101486.0;;;17.52;74.33
77749;BME280;66938;52.084;5.228;2023-07-13T02:47:26;101483.0;;;17.5;74.5
77749;BME280;66938;52.084;5.228;2023-07-13T02:49:03;101488.0;;;17.55;74.37
77749;BME280;66938;52.084;5.228;2023-07-13T02:52:16;101480.0;;;17.43;74.83
77749;BME280;66938;52.084;5.228;2023-07-13T02:53:52;101483.0;;;17.43;74.97
77749;BME280;66938;52.084;5.228;2023-07-13T02:55:28;101480.0;;;17.45;74.86
77749;BME280;66938;52.084;5.228;2023-07-13T02:58:41;101484.0;;;17.39;75.08
77749;BME280;66938;52.084;5.228;2023-07-13T03:00:18;101485.0;;;17.41;75.0
77749;BME280;66938;52.084;5.228;2023-07-13T03:01:54;101480.0;;;17.37;75.09
77749;BME280;66938;52.084;5.228;2023-07-13T03:03:30;101481.0;;;17.41;74.99
77749;BME280;66938;52.084;5.228;2023-07-13T03:06:43;101487.0;;;17.43;74.94
77749;BME280;66938;52.084;5.228;2023-07-13T03:08:19;101484.0;;;17.28;75.41
77749;BME280;66938;52.084;5.228;2023-07-13T03:09:56;101487.0;;;17.3;75.25
77749;BME280;66938;52.084;5.228;2023-07-13T03:13:09;101487.0;;;17.34;75.22
77749;BME280;66938;52.084;5.228;2023-07-13T03:14:45;101492.0;;;17.32;75.16
77749;BME280;66938;52.084;5.228;2023-07-13T03:16:21;101488.0;;;17.32;75.06
77749;BME280;66938;52.084;5.228;2023-07-13T03:19:34;101494.0;;;17.36;74.91
77749;BME280;66938;52.084;5.228;2023-07-13T03:21:10;101489.0;;;17.36;74.94
77749;BME280;66938;52.084;5.228;2023-07-13T03:22:47;101485.0;;;17.27;75.36
77749;BME280;66938;52.084;5.228;2023-07-13T03:26:05;101485.0;;;17.25;75.36
77749;BME280;66938;52.084;5.228;2023-07-13T03:27:41;101492.0;;;17.16;75.66
77749;BME280;66938;52.084;5.228;2023-07-13T03:29:17;101493.0;;;17.23;75.52
77749;BME280;66938;52.084;5.228;2023-07-13T03:30:59;101495.0;;;17.27;75.47
77749;BME280;66938;52.084;5.228;2023-07-13T03:34:12;101498.0;;;17.25;75.48
77749;BME280;66938;52.084;5.228;2023-07-13T03:35:47;101501.0;;;17.2;75.66
77749;BME280;66938;52.084;5.228;2023-07-13T03:37:24;101502.0;;;17.18;75.83
77749;BME280;66938;52.084;5.228;2023-07-13T03:40:38;101503.0;;;17.22;75.73
77749;BME280;66938;52.084;5.228;2023-07-13T03:42:14;101508.0;;;17.2;75.89
77749;BME280;66938;52.084;5.228;2023-07-13T03:43:51;101508.0;;;17.14;76.24
77749;BME280;66938;52.084;5.228;2023-07-13T03:45:27;101511.0;;;17.2;76.12
77749;BME280;66938;52.084;5.228;2023-07-13T03:48:40;101511.0;;;17.22;76.08
77749;BME280;66938;52.084;5.228;2023-07-13T03:50:16;101508.0;;;17.18;76.27
77749;BME280;66938;52.084;5.228;2023-07-13T03:51:52;101510.0;;;17.16;76.59
77749;BME280;66938;52.084;5.228;2023-07-13T03:55:05;101511.0;;;17.16;76.61
77749;BME280;66938;52.084;5.228;2023-07-13T03:56:41;101514.0;;;17.05;76.78
77749;BME280;66938;52.084;5.228;2023-07-13T03:58:35;101518.0;;;17.07;77.41
77749;BME280;66938;52.084;5.228;2023-07-13T04:00:13;101515.0;;;17.02;77.7
77749;BME280;66938;52.084;5.228;2023-07-13T04:03:27;101518.0;;;16.95;78.52
77749;BME280;66938;52.084;5.228;2023-07-13T04:05:04;101522.0;;;16.97;78.77
77749;BME280;66938;52.084;5.228;2023-07-13T04:06:40;101526.0;;;16.9;78.83
77749;BME280;66938;52.084;5.228;2023-07-13T04:09:52;101526.0;;;16.95;78.55
77749;BME280;66938;52.084;5.228;2023-07-13T04:11:32;101528.0;;;16.98;78.02
77749;BME280;66938;52.084;5.228;2023-07-13T04:13:08;101528.0;;;16.95;77.64
77749;BME280;66938;52.084;5.228;2023-07-13T04:14:44;101530.0;;;16.86;78.16
77749;BME280;66938;52.084;5.228;2023-07-13T04:17:58;101530.0;;;16.86;78.25
77749;BME280;66938;52.084;5.228;2023-07-13T04:19:34;101535.0;;;16.91;78.69
77749;BME280;66938;52.084;5.228;2023-07-13T04:21:11;101536.0;;;16.86;79.69
77749;BME280;66938;52.084;5.228;2023-07-13T04:24:24;101539.0;;;16.82;79.31
77749;BME280;66938;52.084;5.228;2023-07-13T04:26:00;101541.0;;;16.87;78.91
77749;BME280;66938;52.084;5.228;2023-07-13T04:27:36;101539.0;;;16.9;78.67
77749;BME280;66938;52.084;5.228;2023-07-13T04:30:49;101544.0;;;16.87;79.94
77749;BME280;66938;52.084;5.228;2023-07-13T04:32:25;101549.0;;;16.93;79.37
77749;BME280;66938;52.084;5.228;2023-07-13T04:34:02;101549.0;;;16.96;79.33
77749;BME280;66938;52.084;5.228;2023-07-13T04:35:38;101551.0;;;16.98;78.55
77749;BME280;66938;52.084;5.228;2023-07-13T04:38:51;101555.0;;;17.05;78.58
77749;BME280;66938;52.084;5.228;2023-07-13T04:40:28;101550.0;;;17.14;78.69
77749;BME280;66938;52.084;5.228;2023-07-13T04:42:05;101549.0;;;17.2;78.52
77749;BME280;66938;52.084;5.228;2023-07-13T04:45:18;101551.0;;;17.2;77.91
77749;BME280;66938;52.084;5.228;2023-07-13T04:46:54;101549.0;;;17.09;77.91
77749;BME280;66938;52.084;5.228;2023-07-13T04:48:30;101550.0;;;17.13;77.89
77749;BME280;66938;52.084;5.228;2023-07-13T04:51:44;101555.0;;;17.18;77.67
77749;BME280;66938;52.084;5.228;2023-07-13T04:53:20;101553.0;;;17.14;77.69
77749;BME280;66938;52.084;5.228;2023-07-13T04:54:56;101555.0;;;17.16;77.63
77749;BME280;66938;52.084;5.228;2023-07-13T04:56:33;101559.0;;;17.16;77.77
77749;BME280;66938;52.084;5.228;2023-07-13T04:59:45;101556.0;;;17.03;78.39
77749;BME280;66938;52.084;5.228;2023-07-13T05:01:21;101556.0;;;17.11;78.34
77749;BME280;66938;52.084;5.228;2023-07-13T05:02:58;101557.0;;;17.16;78.55
77749;BME280;66938;52.084;5.228;2023-07-13T05:06:10;101555.0;;;17.13;78.55
77749;BME280;66938;52.084;5.228;2023-07-13T05:07:46;101555.0;;;17.16;78.48
77749;BME280;66938;52.084;5.228;2023-07-13T05:09:23;101566.0;;;17.14;78.72
77749;BME280;66938;52.084;5.228;2023-07-13T05:12:36;101565.0;;;17.25;78.22
77749;BME280;66938;52.084;5.228;2023-07-13T05:14:12;101566.0;;;17.3;78.08
77749;BME280;66938;52.084;5.228;2023-07-13T05:15:56;101568.0;;;17.27;78.11
77749;BME280;66938;52.084;5.228;2023-07-13T05:17:33;101565.0;;;17.21;78.2
77749;BME280;66938;52.084;5.228;2023-07-13T05:20:46;101561.0;;;17.2;78.39
77749;BME280;66938;52.084;5.228;2023-07-13T05:22:23;101566.0;;;17.25;78.55
77749;BME280;66938;52.084;5.228;2023-07-13T05:23:59;101565.0;;;17.2;78.77
77749;BME280;66938;52.084;5.228;2023-07-13T05:27:12;101571.0;;;17.3;78.58
77749;BME280;66938;52.084;5.228;2023-07-13T05:28:47;101575.0;;;17.36;78.47
77749;BME280;66938;52.084;5.228;2023-07-13T05:30:24;101567.0;;;17.25;78.92
77749;BME280;66938;52.084;5.228;2023-07-13T05:33:36;101578.0;;;17.34;78.88
77749;BME280;66938;52.084;5.228;2023-07-13T05:35:12;101574.0;;;17.32;79.16
77749;BME280;66938;52.084;5.228;2023-07-13T05:36:48;101581.0;;;17.43;78.91
77749;BME280;66938;52.084;5.228;2023-07-13T05:38:25;101582.0;;;17.38;79.06
77749;BME280;66938;52.084;5.228;2023-07-13T05:41:38;101581.0;;;17.41;78.95
77749;BME280;66938;52.084;5.228;2023-07-13T05:43:14;101584.0;;;17.43;78.86
77749;BME280;66938;52.084;5.228;2023-07-13T05:44:51;101581.0;;;17.52;78.74
77749;BME280;66938;52.084;5.228;2023-07-13T05:48:04;101582.0;;;17.47;79.05
77749;BME280;66938;52.084;5.228;2023-07-13T05:49:40;101583.0;;;17.55;78.87
77749;BME280;66938;52.084;5.228;2023-07-13T05:51:16;101586.0;;;17.64;78.74
77749;BME280;66938;52.084;5.228;2023-07-13T05:54:29;101591.0;;;17.61;78.77
77749;BME280;66938;52.084;5.228;2023-07-13T05:56:05;101596.0;;;17.68;78.66
77749;BME280;66938;52.084;5.228;2023-07-13T05:57:41;101599.0;;;17.75;78.66
77749;BME280;66938;52.084;5.228;2023-07-13T05:59:17;101600.0;;;17.79;78.59
77749;BME280;66938;52.084;5.228;2023-07-13T06:02:37;101606.0;;;17.89;78.36
77749;BME280;66938;52.084;5.228;2023-07-13T06:04:13;101603.0;;;17.91;78.14
77749;BME280;66938;52.084;5.228;2023-07-13T06:05:49;101606.0;;;17.93;78.05
77749;BME280;66938;52.084;5.228;2023-07-13T06:09:01;101605.0;;;18.02;77.88
77749;BME280;66938;52.084;5.228;2023-07-13T06:10:38;101608.0;;;18.09;78.02
77749;BME280;66938;52.084;5.228;2023-07-13T06:12:14;101606.0;;;18.12;77.66
77749;BME280;66938;52.084;5.228;2023-07-13T06:13:51;101612.0;;;18.25;77.44
77749;BME280;66938;52.084;5.228;2023-07-13T06:17:04;101616.0;;;18.21;77.52
77749;BME280;66938;52.084;5.228;2023-07-13T06:18:41;101621.0;;;18.2;77.49
77749;BME280;66938;52.084;5.228;2023-07-13T06:20:18;101623.0;;;18.3;77.16
77749;BME280;66938;52.084;5.228;2023-07-13T06:23:30;101625.0;;;18.43;76.95
77749;BME280;66938;52.084;5.228;2023-07-13T06:25:07;101628.0;;;18.52;76.91
77749;BME280;66938;52.084;5.228;2023-07-13T06:26:43;101631.0;;;18.48;76.44
77749;BME280;66938;52.084;5.228;2023-07-13T06:29:55;101627.0;;;18.46;76.16
77749;BME280;66938;52.084;5.228;2023-07-13T06:31:31;101630.0;;;18.45;76.36
77749;BME280;66938;52.084;5.228;2023-07-13T06:33:07;101635.0;;;18.54;76.44
77749;BME280;66938;52.084;5.228;2023-07-13T06:36:19;101640.0;;;18.45;76.19
77749;BME280;66938;52.084;5.228;2023-07-13T06:37:55;101641.0;;;18.52;76.27
77749;BME280;66938;52.084;5.228;2023-07-13T06:39:32;101634.0;;;18.53;76.03
77749;BME280;66938;52.084;5.228;2023-07-13T06:41:09;101637.0;;;18.54;76.08
77749;BME280;66938;52.084;5.228;2023-07-13T06:44:21;101632.0;;;18.45;76.05
77749;BME280;66938;52.084;5.228;2023-07-13T06:45:57;101633.0;;;18.52;76.02
77749;BME280;66938;52.084;5.228;2023-07-13T06:47:34;101638.0;;;18.59;76.08
77749;BME280;66938;52.084;5.228;2023-07-13T06:50:48;101638.0;;;18.66;75.83
77749;BME280;66938;52.084;5.228;2023-07-13T06:52:25;101640.0;;;18.75;75.52
77749;BME280;66938;52.084;5.228;2023-07-13T06:54:01;101635.0;;;18.8;75.27
77749;BME280;66938;52.084;5.228;2023-07-13T06:57:14;101643.0;;;18.87;75.53
77749;BME280;66938;52.084;5.228;2023-07-13T06:58:50;101642.0;;;18.93;74.99
77749;BME280;66938;52.084;5.228;2023-07-13T07:00:26;101649.0;;;18.93;74.84
77749;BME280;66938;52.084;5.228;2023-07-13T07:02:03;101650.0;;;18.91;75.45
77749;BME280;66938;52.084;5.228;2023-07-13T07:05:16;101650.0;;;19.09;75.89
77749;BME280;66938;52.084;5.228;2023-07-13T07:06:52;101653.0;;;19.09;75.44
77749;BME280;66938;52.084;5.228;2023-07-13T07:08:28;101655.0;;;18.93;75.25
77749;BME280;66938;52.084;5.228;2023-07-13T07:11:41;101660.0;;;18.93;75.55
77749;BME280;66938;52.084;5.228;2023-07-13T07:13:18;101659.0;;;19.04;75.74
77749;BME280;66938;52.084;5.228;2023-07-13T07:14:55;101658.0;;;18.93;75.91
77749;BME280;66938;52.084;5.228;2023-07-13T07:18:07;101668.0;;;18.81;76.34
77749;BME280;66938;52.084;5.228;2023-07-13T07:19:43;101662.0;;;18.8;76.63
77749;BME280;66938;52.084;5.228;2023-07-13T07:22:55;101671.0;;;18.82;77.41
77749;BME280;66938;52.084;5.228;2023-07-13T07:26:08;101670.0;;;18.61;78.05
77749;BME280;66938;52.084;5.228;2023-07-13T07:27:44;101674.0;;;18.77;77.83
77749;BME280;66938;52.084;5.228;2023-07-13T07:29:21;101672.0;;;18.68;77.55
77749;BME280;66938;52.084;5.228;2023-07-13T07:32:34;101677.0;;;18.71;77.58
77749;BME280;66938;52.084;5.228;2023-07-13T07:34:10;101680.0;;;18.71;77.66
77749;BME280;66938;52.084;5.228;2023-07-13T07:35:46;101673.0;;;18.71;78.19
77749;BME280;66938;52.084;5.228;2023-07-13T07:39:00;101669.0;;;18.7;77.8
77749;BME280;66938;52.084;5.228;2023-07-13T07:40:37;101662.0;;;18.66;78.05
77749;BME280;66938;52.084;5.228;2023-07-13T07:42:13;101664.0;;;18.73;78.2
77749;BME280;66938;52.084;5.228;2023-07-13T07:43:49;101663.0;;;18.77;78.25
77749;BME280;66938;52.084;5.228;2023-07-13T07:47:03;101659.0;;;18.79;78.24
77749;BME280;66938;52.084;5.228;2023-07-13T07:48:40;101661.0;;;18.77;77.66
77749;BME280;66938;52.084;5.228;2023-07-13T07:50:16;101661.0;;;18.84;78.06
77749;BME280;66938;52.084;5.228;2023-07-13T07:53:28;101667.0;;;18.93;77.67
77749;BME280;66938;52.084;5.228;2023-07-13T07:55:06;101670.0;;;18.93;77.73
77749;BME280;66938;52.084;5.228;2023-07-13T07:56:43;101670.0;;;18.86;77.52
77749;BME280;66938;52.084;5.228;2023-07-13T07:59:56;101670.0;;;18.77;77.11
77749;BME280;66938;52.084;5.228;2023-07-13T08:01:33;101668.0;;;18.86;76.44
77749;BME280;66938;52.084;5.228;2023-07-13T08:03:09;101669.0;;;18.91;76.59
77749;BME280;66938;52.084;5.228;2023-07-13T08:04:46;101681.0;;;18.86;76.24
77749;BME280;66938;52.084;5.228;2023-07-13T08:08:00;101668.0;;;18.93;75.75
77749;BME280;66938;52.084;5.228;2023-07-13T08:09:36;101662.0;;;18.86;75.81
77749;BME280;66938;52.084;5.228;2023-07-13T08:11:12;101658.0;;;18.91;75.59
77749;BME280;66938;52.084;5.228;2023-07-13T08:14:25;101662.0;;;19.05;74.72
77749;BME280;66938;52.084;5.228;2023-07-13T08:16:03;101658.0;;;19.04;74.72
77749;BME280;66938;52.084;5.228;2023-07-13T08:17:40;101662.0;;;19.2;74.56
77749;BME280;66938;52.084;5.228;2023-07-13T08:20:53;101665.0;;;19.21;74.23
77749;BME280;66938;52.084;5.228;2023-07-13T08:22:29;101666.0;;;19.34;74.0
77749;BME280;66938;52.084;5.228;2023-07-13T08:24:06;101670.0;;;19.36;72.27
77749;BME280;66938;52.084;5.228;2023-07-13T08:25:50;101675.0;;;19.28;71.3
77749;BME280;66938;52.084;5.228;2023-07-13T08:29:04;101676.0;;;19.39;71.33
77749;BME280;66938;52.084;5.228;2023-07-13T08:30:40;101677.0;;;19.43;68.27
77749;BME280;66938;52.084;5.228;2023-07-13T08:32:17;101673.0;;;19.38;64.91
77749;BME280;66938;52.084;5.228;2023-07-13T08:35:32;101676.0;;;19.41;64.37
77749;BME280;66938;52.084;5.228;2023-07-13T08:37:08;101680.0;;;19.29;64.78
77749;BME280;66938;52.084;5.228;2023-07-13T08:38:45;101687.0;;;19.28;66.52
77749;BME280;66938;52.084;5.228;2023-07-13T08:40:25;101690.0;;;19.16;67.85
77749;BME280;66938;52.084;5.228;2023-07-13T08:43:50;101687.0;;;19.09;68.33
77749;BME280;66938;52.084;5.228;2023-07-13T08:45:40;101694.0;;;18.89;68.49
77749;BME280;66938;52.084;5.228;2023-07-13T08:47:21;101700.0;;;19.03;69.36
77749;BME280;66938;52.084;5.228;2023-07-13T08:49:02;101691.0;;;18.8;69.19
77749;BME280;66938;52.084;5.228;2023-07-13T08:52:37;101696.0;;;18.84;70.44
77749;BME280;66938;52.084;5.228;2023-07-13T08:54:21;101697.0;;;18.91;70.88
77749;BME280;66938;52.084;5.228;2023-07-13T08:55:59;101695.0;;;18.8;71.49
77749;BME280;66938;52.084;5.228;2023-07-13T08:57:37;101698.0;;;18.86;72.02
77749;BME280;66938;52.084;5.228;2023-07-13T08:59:19;101695.0;;;18.91;72.34
77749;BME280;66938;52.084;5.228;2023-07-13T09:02:46;101688.0;;;19.02;72.22
77749;BME280;66938;52.084;5.228;2023-07-13T09:04:32;101690.0;;;19.04;72.77
77749;BME280;66938;52.084;5.228;2023-07-13T09:06:13;101682.0;;;19.18;72.08
77749;BME280;66938;52.084;5.228;2023-07-13T09:08:04;101690.0;;;19.25;71.19
77749;BME280;66938;52.084;5.228;2023-07-13T09:09:53;101691.0;;;19.31;70.3
77749;BME280;66938;52.084;5.228;2023-07-13T09:11:50;101691.0;;;19.29;69.72
77749;BME280;66938;52.084;5.228;2023-07-13T09:15:26;101700.0;;;19.32;70.22
77749;BME280;66938;52.084;5.228;2023-07-13T09:17:08;101696.0;;;19.28;70.06
77749;BME280;66938;52.084;5.228;2023-07-13T09:18:50;101694.0;;;19.34;70.47
77749;BME280;66938;52.084;5.228;2023-07-13T09:20:31;101691.0;;;19.5;70.73
77749;BME280;66938;52.084;5.228;2023-07-13T09:22:17;101682.0;;;19.62;70.19
77749;BME280;66938;52.084;5.228;2023-07-13T09:26:02;101683.0;;;19.78;70.87
77749;BME280;66938;52.084;5.228;2023-07-13T09:27:44;101676.0;;;19.84;70.39
77749;BME280;66938;52.084;5.228;2023-07-13T09:29:27;101694.0;;;19.95;68.56
77749;BME280;66938;52.084;5.228;2023-07-13T09:31:09;101696.0;;;20.04;66.89
77749;BME280;66938;52.084;5.228;2023-07-13T09:32:50;101691.0;;;20.18;66.87
77749;BME280;66938;52.084;5.228;2023-07-13T09:36:19;101693.0;;;20.16;64.91
77749;BME280;66938;52.084;5.228;2023-07-13T09:38:04;101695.0;;;20.22;65.03
77749;BME280;66938;52.084;5.228;2023-07-13T09:39:46;101694.0;;;20.21;65.31
77749;BME280;66938;52.084;5.228;2023-07-13T09:41:29;101701.0;;;20.28;66.27
77749;BME280;66938;52.084;5.228;2023-07-13T09:43:13;101705.0;;;20.18;68.16
77749;BME280;66938;52.084;5.228;2023-07-13T09:46:30;101711.0;;;20.13;67.39
77749;BME280;66938;52.084;5.228;2023-07-13T09:48:10;101716.0;;;20.06;67.44
77749;BME280;66938;52.084;5.228;2023-07-13T09:49:54;101716.0;;;20.02;68.17
77749;BME280;66938;52.084;5.228;2023-07-13T09:51:31;101717.0;;;19.75;68.69
77749;BME280;66938;52.084;5.228;2023-07-13T09:54:50;101714.0;;;19.71;69.24
77749;BME280;66938;52.084;5.228;2023-07-13T09:56:29;101708.0;;;19.75;69.7
77749;BME280;66938;52.084;5.228;2023-07-13T09:58:10;101712.0;;;19.79;69.87
77749;BME280;66938;52.084;5.228;2023-07-13T09:59:51;101710.0;;;19.57;70.69
77749;BME280;66938;52.084;5.228;2023-07-13T10:03:17;101719.0;;;19.66;70.44
77749;BME280;66938;52.084;5.228;2023-07-13T10:04:56;101716.0;;;19.7;70.69
77749;BME280;66938;52.084;5.228;2023-07-13T10:06:34;101719.0;;;19.75;70.66
77749;BME280;66938;52.084;5.228;2023-07-13T10:08:21;101722.0;;;19.93;70.81
77749;BME280;66938;52.084;5.228;2023-07-13T10:11:39;101725.0;;;20.03;69.56
77749;BME280;66938;52.084;5.228;2023-07-13T10:13:30;101724.0;;;20.09;69.27
77749;BME280;66938;52.084;5.228;2023-07-13T10:15:15;101725.0;;;20.16;68.75
77749;BME280;66938;52.084;5.228;2023-07-13T10:16:59;101725.0;;;20.36;70.5
77749;BME280;66938;52.084;5.228;2023-07-13T10:18:42;101725.0;;;20.52;68.94
77749;BME280;66938;52.084;5.228;2023-07-13T10:22:01;101721.0;;;20.43;67.91
77749;BME280;66938;52.084;5.228;2023-07-13T10:23:38;101724.0;;;20.5;65.95
77749;BME280;66938;52.084;5.228;2023-07-13T10:25:17;101730.0;;;20.45;66.34
77749;BME280;66938;52.084;5.228;2023-07-13T10:28:53;101735.0;;;20.62;66.25
77749;BME280;66938;52.084;5.228;2023-07-13T10:30:33;101732.0;;;20.49;66.08
77749;BME280;66938;52.084;5.228;2023-07-13T10:32:14;101744.0;;;20.39;64.6
77749;BME280;66938;52.084;5.228;2023-07-13T10:33:51;101746.0;;;20.43;65.8
77749;BME280;66938;52.084;5.228;2023-07-13T10:35:29;101746.0;;;20.49;65.24
77749;BME280;66938;52.084;5.228;2023-07-13T10:38:52;101749.0;;;20.45;64.27
77749;BME280;66938;52.084;5.228;2023-07-13T10:40:35;101748.0;;;20.43;64.05
77749;BME280;66938;52.084;5.228;2023-07-13T10:42:15;101740.0;;;20.46;63.92
77749;BME280;66938;52.084;5.228;2023-07-13T10:44:18;101736.0;;;20.56;62.6
77749;BME280;66938;52.084;5.228;2023-07-13T10:45:56;101736.0;;;20.74;62.63
77749;BME280;66938;52.084;5.228;2023-07-13T10:49:10;101733.0;;;20.72;63.12
77749;BME280;66938;52.084;5.228;2023-07-13T10:50:50;101734.0;;;20.77;59.71
77749;BME280;66938;52.084;5.228;2023-07-13T10:52:46;101745.0;;;20.88;61.55
77749;BME280;66938;52.084;5.228;2023-07-13T10:54:27;101741.0;;;20.85;58.84
77749;BME280;66938;52.084;5.228;2023-07-13T10:58:01;101733.0;;;20.94;60.0
77749;BME280;66938;52.084;5.228;2023-07-13T10:59:38;101738.0;;;21.26;61.21
77749;BME280;66938;52.084;5.228;2023-07-13T11:01:15;101740.0;;;21.21;59.68
77749;BME280;66938;52.084;5.228;2023-07-13T11:02:57;101739.0;;;21.34;61.67
77749;BME280;66938;52.084;5.228;2023-07-13T11:06:32;101742.0;;;21.34;61.53
77749;BME280;66938;52.084;5.228;2023-07-13T11:08:19;101744.0;;;21.4;60.95